Current Conditions
Scattered
Clouds



Pressure
1016.92 (hPa) - 30.03 (inHG)
Visibility

10.0 (km) - 6.2 (miles)
Temperature
12  °C
Temperature
3  °C
Dewpoint
54  %
 Humidity
Wind Speed
26  km/h
14  kts
16  mph
7.2  m/s
Wind Direction
N
45°
E
90°
135°
S
180°
225°
W
270°
315°
 80°

Due East
Airport Data
LTBA
İstanbul Atatürk Airport
Metar :LTBA 170720Z 08014KT 9999 SCT040 BKN100 12/03 Q1017 NOSIG RMK RWY23 07013KT
Sat 17th April 09:20 am
Raw Metar Info
Raw METAR is the most common format in the world for the transmission of observational weather data. It is highly standardized through the International Civil Aviation Organization (ICAO), which allows it to be understood throughout most of the world.
API Info
Data Provided by
https://www.checkwx.com/weather/LTBA

Aviation Weather providing METAR, TAF, AIRMET, SIGMET and OUTLOOK Weather Reports
© Info
CSS/SVG/PHP scripts were developed by weather34.com for use in the weather34 template © 2015-2021

Guide Info provided by Metar-Wikipedia